createdAt,value
2022-11-29T00:01:05.843Z,12.15
2022-11-29T00:04:08.569Z,12.13
2022-11-29T00:07:11.299Z,11.85
2022-11-29T00:10:13.964Z,12.05
2022-11-29T00:13:18.088Z,11.43
2022-11-29T00:16:20.585Z,11.65
2022-11-29T00:19:23.926Z,11.73
2022-11-29T00:22:26.382Z,12.55
2022-11-29T00:25:28.894Z,12.50
2022-11-29T00:28:31.517Z,11.85
2022-11-29T00:31:34.935Z,11.80
2022-11-29T00:34:38.033Z,11.70
2022-11-29T00:37:40.571Z,11.70
2022-11-29T00:40:43.103Z,11.93
2022-11-29T00:43:45.647Z,11.30
2022-11-29T00:46:48.354Z,11.93
2022-11-29T00:49:50.919Z,11.20
2022-11-29T00:52:53.356Z,11.30
2022-11-29T00:55:56.513Z,12.23
2022-11-29T00:58:59.218Z,11.55
2022-11-29T01:02:01.844Z,11.18
2022-11-29T01:05:04.805Z,10.77
2022-11-29T01:08:07.454Z,10.98
2022-11-29T01:11:19.806Z,12.02
2022-11-29T01:14:22.442Z,11.07
2022-11-29T01:17:24.982Z,11.05
2022-11-29T01:20:27.995Z,10.57
2022-11-29T01:23:30.813Z,11.77
2022-11-29T01:26:33.431Z,10.95
2022-11-29T01:29:36.258Z,11.52
2022-11-29T01:32:39.363Z,11.57
2022-11-29T01:35:51.476Z,11.03
2022-11-29T01:38:54.824Z,11.30
2022-11-29T01:41:58.138Z,11.43
2022-11-29T01:45:18.959Z,11.48
2022-11-29T01:48:26.263Z,10.57
2022-11-29T01:51:29.832Z,10.83
2022-11-29T01:54:35.395Z,10.55
2022-11-29T01:57:41.068Z,11.95
2022-11-29T02:00:45.962Z,11.05
2022-11-29T02:03:48.534Z,11.60
2022-11-29T02:06:51.258Z,11.03
2022-11-29T02:09:53.753Z,11.23
2022-11-29T02:13:11.633Z,11.57
2022-11-29T02:16:24.354Z,11.75
2022-11-29T02:20:02.130Z,11.95
2022-11-29T02:23:31.838Z,11.90
2022-11-29T02:26:49.281Z,12.63
2022-11-29T02:30:10.307Z,12.13
2022-11-29T02:33:18.546Z,11.65
2022-11-29T02:36:51.869Z,11.55
2022-11-29T02:40:09.508Z,11.90
2022-11-29T02:43:14.791Z,11.85
2022-11-29T02:46:38.832Z,12.43
2022-11-29T02:50:00.921Z,12.00
2022-11-29T02:53:10.772Z,12.48
2022-11-29T02:56:23.576Z,11.20
2022-11-29T02:59:50.791Z,11.60
2022-11-29T03:03:07.115Z,11.93
2022-11-29T03:06:18.468Z,12.77
2022-11-29T03:09:49.276Z,12.93
2022-11-29T03:12:54.479Z,12.20
2022-11-29T03:16:23.740Z,12.60
2022-11-29T03:20:04.503Z,12.90
2022-11-29T03:23:18.817Z,11.65
2022-11-29T03:26:26.845Z,12.05
2022-11-29T03:29:44.853Z,12.33
2022-11-29T03:33:15.300Z,12.48
2022-11-29T03:36:33.829Z,13.40
2022-11-29T03:39:45.599Z,12.73
2022-11-29T03:42:56.435Z,13.18
2022-11-29T03:46:05.094Z,12.63
2022-11-29T03:49:22.751Z,13.38
2022-11-29T03:52:47.504Z,12.48
2022-11-29T03:55:58.856Z,13.35
2022-11-29T03:59:35.321Z,12.45
2022-11-29T04:03:09.869Z,12.73
2022-11-29T04:06:53.634Z,12.65
2022-11-29T04:10:20.303Z,12.73
2022-11-29T04:14:07.467Z,13.30
2022-11-29T04:17:47.065Z,13.40
2022-11-29T04:20:58.470Z,13.63
2022-11-29T04:24:16.044Z,12.88
2022-11-29T04:27:43.538Z,13.02
2022-11-29T04:31:01.864Z,14.82
2022-11-29T04:34:28.401Z,13.05
2022-11-29T04:38:01.748Z,13.10
2022-11-29T04:41:20.491Z,12.60
2022-11-29T04:44:34.843Z,13.25
2022-11-29T04:47:43.460Z,13.63
2022-11-29T04:50:56.413Z,13.23
2022-11-29T04:54:11.254Z,14.00
2022-11-29T04:57:30.558Z,13.15
2022-11-29T05:00:44.794Z,13.73
2022-11-29T05:04:02.150Z,13.50
2022-11-29T05:07:14.575Z,13.88
2022-11-29T05:10:50.476Z,13.23
2022-11-29T05:14:24.955Z,14.73
2022-11-29T05:17:53.335Z,14.25
2022-11-29T05:21:09.834Z,13.35
2022-11-29T05:24:15.053Z,13.10
2022-11-29T05:27:52.650Z,12.53
2022-11-29T05:31:23.618Z,12.02
2022-11-29T05:34:30.261Z,12.43
2022-11-29T05:37:45.087Z,12.73
2022-11-29T05:41:09.376Z,12.98
2022-11-29T05:44:18.265Z,12.07
2022-11-29T05:47:40.296Z,12.50
2022-11-29T05:50:48.470Z,13.90
2022-11-29T05:54:02.575Z,14.27
2022-11-29T05:57:23.850Z,14.18
2022-11-29T06:00:58.118Z,13.70
2022-11-29T06:04:11.713Z,13.93
2022-11-29T06:07:26.260Z,14.25
2022-11-29T06:10:33.092Z,13.30
2022-11-29T06:13:46.072Z,14.23
2022-11-29T06:16:51.425Z,13.43
2022-11-29T06:20:26.404Z,13.25
2022-11-29T06:23:44.257Z,13.30
2022-11-29T06:27:11.786Z,13.63
2022-11-29T06:30:20.909Z,14.13
2022-11-29T06:33:29.105Z,13.27
2022-11-29T06:36:42.962Z,13.45
2022-11-29T06:39:45.744Z,13.15
2022-11-29T06:42:49.079Z,13.10
2022-11-29T06:45:56.737Z,12.75
2022-11-29T06:49:28.059Z,11.83
2022-11-29T06:52:39.931Z,12.32
2022-11-29T06:55:56.634Z,12.82
2022-11-29T06:59:12.323Z,12.20
2022-11-29T07:03:06.918Z,11.82
2022-11-29T07:06:28.190Z,12.30
2022-11-29T07:09:35.837Z,11.95
2022-11-29T07:12:38.699Z,11.80
2022-11-29T07:15:50.339Z,11.80
2022-11-29T07:19:21.944Z,12.23
2022-11-29T07:22:50.107Z,11.70
2022-11-29T07:26:15.351Z,11.35
2022-11-29T07:29:33.017Z,12.60
2022-11-29T07:33:00.772Z,11.75
2022-11-29T07:36:15.462Z,12.98
2022-11-29T07:39:29.962Z,11.90
2022-11-29T07:43:08.900Z,12.30
2022-11-29T07:46:11.680Z,11.68
2022-11-29T07:49:14.385Z,12.20
2022-11-29T07:52:19.178Z,11.65
2022-11-29T07:55:24.846Z,11.83
2022-11-29T07:58:27.613Z,11.82
2022-11-29T08:01:33.027Z,11.68
2022-11-29T08:04:35.690Z,11.77
2022-11-29T08:07:41.273Z,12.07
2022-11-29T08:10:45.194Z,12.40
2022-11-29T08:13:51.246Z,11.55
2022-11-29T08:16:53.815Z,12.15
2022-11-29T08:20:00.040Z,11.93
2022-11-29T08:23:06.632Z,12.60
2022-11-29T08:26:11.985Z,12.43
2022-11-29T08:29:14.822Z,12.10
2022-11-29T08:32:17.730Z,11.85
2022-11-29T08:35:22.403Z,11.75
2022-11-29T08:38:26.176Z,11.75
2022-11-29T08:41:29.824Z,11.90
2022-11-29T08:44:33.746Z,12.57
2022-11-29T08:47:37.630Z,12.45
2022-11-29T08:50:40.065Z,12.32
2022-11-29T08:53:42.553Z,13.20
2022-11-29T08:57:31.393Z,12.10
2022-11-29T09:00:08.863Z,12.15
2022-11-29T09:03:32.809Z,12.68
2022-11-29T09:06:45.307Z,11.60
2022-11-29T09:09:48.581Z,11.88
2022-11-29T09:12:52.806Z,12.47
2022-11-29T09:15:55.528Z,12.30
2022-11-29T09:19:00.792Z,12.35
2022-11-29T09:22:10.451Z,12.27
2022-11-29T09:25:13.345Z,12.65
2022-11-29T09:28:16.183Z,11.97
2022-11-29T09:31:20.361Z,12.18
2022-11-29T09:34:24.318Z,11.43
2022-11-29T09:37:26.958Z,12.05
2022-11-29T09:40:40.242Z,12.23
2022-11-29T09:44:01.188Z,11.57
2022-11-29T09:47:21.892Z,11.57
2022-11-29T09:50:40.815Z,12.57
2022-11-29T09:54:06.634Z,12.10
2022-11-29T09:57:11.048Z,12.93
2022-11-29T10:00:20.172Z,12.37
2022-11-29T10:03:44.964Z,12.05
2022-11-29T10:07:05.613Z,12.60
2022-11-29T10:10:20.604Z,11.30
2022-11-29T10:13:37.037Z,12.52
2022-11-29T10:17:20.298Z,11.70
2022-11-29T10:20:25.824Z,12.23
2022-11-29T10:24:19.720Z,12.18
2022-11-29T10:27:24.068Z,12.25
2022-11-29T10:35:12.164Z,12.17
2022-11-29T10:43:34.198Z,11.73
2022-11-29T10:46:37.399Z,11.15
2022-11-29T10:49:40.503Z,12.77
2022-11-29T10:52:43.438Z,12.33
2022-11-29T10:56:02.931Z,11.90
2022-11-29T10:59:09.649Z,12.73
2022-11-29T11:02:19.541Z,11.88
2022-11-29T11:05:26.908Z,12.07
2022-11-29T11:08:35.249Z,12.10
2022-11-29T11:11:40.337Z,13.18
2022-11-29T11:14:44.831Z,11.45
2022-11-29T11:18:04.992Z,12.30
2022-11-29T11:21:12.785Z,11.63
2022-11-29T11:24:25.803Z,11.30
2022-11-29T11:27:37.352Z,12.13
2022-11-29T11:30:49.979Z,12.50
2022-11-29T11:33:52.631Z,11.68
2022-11-29T11:37:15.062Z,11.98
2022-11-29T11:40:26.813Z,11.67
2022-11-29T11:43:29.773Z,11.23
2022-11-29T11:46:50.259Z,11.85
2022-11-29T11:50:04.797Z,11.27
2022-11-29T11:53:20.211Z,11.32
2022-11-29T11:56:24.417Z,12.03
2022-11-29T11:59:27.974Z,11.75
2022-11-29T12:02:40.057Z,12.55
2022-11-29T12:05:46.202Z,11.65
2022-11-29T12:08:49.658Z,11.75
2022-11-29T12:12:33.818Z,11.27
2022-11-29T12:15:41.624Z,10.60
2022-11-29T12:18:50.577Z,11.27
2022-11-29T12:21:59.899Z,11.32
2022-11-29T12:25:18.670Z,11.52
2022-11-29T12:28:29.415Z,10.93
2022-11-29T12:31:45.848Z,11.48
2022-11-29T12:35:06.780Z,10.82
2022-11-29T12:38:42.858Z,10.25
2022-11-29T12:41:54.425Z,11.50
2022-11-29T12:45:05.668Z,10.80
2022-11-29T12:48:41.120Z,12.00
2022-11-29T12:52:28.965Z,12.55
2022-11-29T12:55:50.525Z,11.82
2022-11-29T12:59:11.026Z,11.88
2022-11-29T13:02:45.919Z,11.43
2022-11-29T13:05:59.444Z,12.02
2022-11-29T13:09:08.209Z,11.52
2022-11-29T13:12:18.692Z,11.05
2022-11-29T13:15:59.257Z,11.63
2022-11-29T13:19:15.097Z,11.13
2022-11-29T13:22:49.709Z,11.05
2022-11-29T13:25:54.718Z,11.13
2022-11-29T13:28:58.658Z,12.18
2022-11-29T13:32:04.478Z,11.00
2022-11-29T13:35:19.251Z,11.20
2022-11-29T13:39:08.056Z,10.90
2022-11-29T13:42:16.998Z,10.95
2022-11-29T13:45:34.567Z,11.05
2022-11-29T13:48:49.444Z,10.75
2022-11-29T13:52:05.757Z,10.77
2022-11-29T13:55:23.264Z,10.82
2022-11-29T13:58:28.684Z,10.93
2022-11-29T14:01:47.141Z,11.07
2022-11-29T14:04:49.862Z,10.70
2022-11-29T14:08:55.207Z,10.63
2022-11-29T14:12:03.251Z,10.75
2022-11-29T14:15:14.313Z,10.10
2022-11-29T14:18:42.591Z,11.25
2022-11-29T14:22:03.229Z,10.55
2022-11-29T14:25:49.892Z,10.07
2022-11-29T14:28:59.102Z,10.32
2022-11-29T14:32:01.663Z,10.18
2022-11-29T14:35:11.096Z,11.57
2022-11-29T14:38:32.905Z,11.15
2022-11-29T14:41:50.878Z,10.23
2022-11-29T14:45:06.350Z,10.48
2022-11-29T14:48:31.787Z,10.15
2022-11-29T14:51:35.150Z,10.00
2022-11-29T14:54:55.864Z,10.50
2022-11-29T14:57:58.727Z,11.17
2022-11-29T15:01:10.076Z,10.20
2022-11-29T15:04:13.641Z,10.80
2022-11-29T15:07:22.471Z,10.25
2022-11-29T15:10:31.939Z,10.30
2022-11-29T15:13:36.480Z,10.30
2022-11-29T15:16:53.430Z,10.18
2022-11-29T15:20:28.567Z,10.52
2022-11-29T15:23:40.707Z,10.68
2022-11-29T15:26:59.033Z,10.00
2022-11-29T15:30:39.621Z,10.30
2022-11-29T15:33:44.607Z,10.25
2022-11-29T15:36:48.648Z,9.85
2022-11-29T15:40:13.520Z,10.63
2022-11-29T15:43:31.429Z,11.00
2022-11-29T15:46:38.015Z,10.63
2022-11-29T15:49:40.680Z,10.52
2022-11-29T15:52:43.625Z,10.80
2022-11-29T15:55:49.705Z,10.30
2022-11-29T15:59:00.382Z,11.18
2022-11-29T16:02:15.124Z,10.83
2022-11-29T16:05:22.582Z,10.73
2022-11-29T16:08:27.755Z,10.75
2022-11-29T16:11:31.846Z,10.90
2022-11-29T16:14:34.626Z,10.98
2022-11-29T16:17:37.712Z,10.93
2022-11-29T16:20:40.773Z,11.07
2022-11-29T16:23:44.297Z,11.27
2022-11-29T16:26:48.980Z,10.02
2022-11-29T16:29:57.407Z,10.98
2022-11-29T16:33:03.689Z,11.17
2022-11-29T16:36:19.103Z,12.80
2022-11-29T16:39:25.528Z,11.82
2022-11-29T16:42:30.316Z,12.43
2022-11-29T16:45:43.130Z,11.95
2022-11-29T16:48:46.267Z,11.77
2022-11-29T16:51:49.195Z,11.60
2022-11-29T16:54:51.940Z,11.45
2022-11-29T16:57:54.531Z,11.48
2022-11-29T17:00:57.641Z,11.20
2022-11-29T17:04:04.026Z,11.87
2022-11-29T17:07:08.939Z,11.10
2022-11-29T17:10:16.454Z,10.95
2022-11-29T17:13:19.330Z,11.05
2022-11-29T17:16:23.677Z,11.48
2022-11-29T17:19:29.228Z,11.07
2022-11-29T17:22:32.089Z,11.40
2022-11-29T17:25:34.687Z,10.68
2022-11-29T17:28:37.623Z,10.75
2022-11-29T17:31:41.664Z,11.45
2022-11-29T17:34:44.848Z,10.53
2022-11-29T17:37:47.938Z,10.88
2022-11-29T17:40:51.339Z,11.02
2022-11-29T17:43:55.642Z,10.05
2022-11-29T17:46:58.786Z,10.75
2022-11-29T17:50:01.585Z,10.80
2022-11-29T17:53:06.329Z,10.93
2022-11-29T17:56:11.946Z,10.75
2022-11-29T17:59:14.778Z,11.95
2022-11-29T18:02:18.632Z,11.93
2022-11-29T18:05:21.376Z,10.33
2022-11-29T18:08:24.125Z,10.60
2022-11-29T18:11:29.858Z,11.43
2022-11-29T18:14:33.822Z,11.00
2022-11-29T18:17:36.715Z,10.45
2022-11-29T18:20:39.824Z,10.03
2022-11-29T18:23:44.225Z,10.93
2022-11-29T18:26:46.908Z,11.48
2022-11-29T18:29:50.091Z,10.73
2022-11-29T18:32:53.468Z,11.50
2022-11-29T18:36:03.097Z,11.67
2022-11-29T18:39:13.389Z,10.80
2022-11-29T18:42:17.184Z,10.65
2022-11-29T18:45:20.172Z,10.98
2022-11-29T18:48:23.503Z,10.27
2022-11-29T18:51:27.869Z,10.90
2022-11-29T18:54:31.468Z,10.45
2022-11-29T18:57:35.442Z,10.88
2022-11-29T19:00:38.628Z,11.13
2022-11-29T19:03:44.293Z,11.50
2022-11-29T19:06:47.781Z,10.63
2022-11-29T19:09:50.544Z,10.82
2022-11-29T19:12:53.564Z,10.20
2022-11-29T19:15:57.160Z,10.05
2022-11-29T19:19:01.412Z,10.65
2022-11-29T19:22:04.605Z,10.00
2022-11-29T19:25:08.400Z,10.20
2022-11-29T19:28:14.248Z,10.02
2022-11-29T19:31:20.156Z,9.77
2022-11-29T19:34:23.159Z,10.50
2022-11-29T19:37:25.733Z,10.80
2022-11-29T19:40:28.889Z,10.63
2022-11-29T19:43:32.397Z,10.57
2022-11-29T19:46:38.390Z,10.10
2022-11-29T19:49:46.163Z,11.13
2022-11-29T19:52:51.056Z,10.10
2022-11-29T19:55:53.727Z,10.82
2022-11-29T19:58:57.146Z,10.65
2022-11-29T20:02:00.786Z,11.02
2022-11-29T20:05:03.956Z,10.38
2022-11-29T20:08:07.942Z,10.63
2022-11-29T20:11:16.652Z,10.60
2022-11-29T20:14:25.219Z,10.60
2022-11-29T20:17:28.329Z,10.45
2022-11-29T20:20:31.541Z,10.02
2022-11-29T20:23:34.990Z,10.73
2022-11-29T20:26:40.201Z,9.90
2022-11-29T20:29:43.353Z,10.70
2022-11-29T20:32:46.739Z,10.48
2022-11-29T20:36:09.261Z,11.13
2022-11-29T20:39:42.161Z,10.33
2022-11-29T20:43:11.512Z,10.00
2022-11-29T20:46:14.842Z,10.70
2022-11-29T20:49:18.737Z,9.93
2022-11-29T20:52:28.168Z,10.32
2022-11-29T20:55:31.452Z,9.27
2022-11-29T20:58:35.636Z,10.27
2022-11-29T21:01:38.681Z,10.65
2022-11-29T21:04:41.595Z,10.05
2022-11-29T21:07:45.965Z,9.57
2022-11-29T21:10:50.210Z,9.90
2022-11-29T21:13:53.025Z,10.20
2022-11-29T21:16:55.987Z,9.93
2022-11-29T21:19:59.438Z,10.10
2022-11-29T21:23:09.149Z,9.43
2022-11-29T21:26:17.918Z,9.50
2022-11-29T21:29:23.853Z,9.23
2022-11-29T21:32:27.371Z,9.95
2022-11-29T21:35:30.004Z,10.10
2022-11-29T21:38:33.406Z,9.93
2022-11-29T21:41:36.408Z,9.40
2022-11-29T21:44:38.952Z,9.32
2022-11-29T21:47:41.419Z,9.65
2022-11-29T21:50:49.713Z,9.70
2022-11-29T21:53:52.153Z,9.38
2022-11-29T21:56:55.099Z,9.00
2022-11-29T21:59:58.102Z,9.15
2022-11-29T22:03:00.951Z,10.00
2022-11-29T22:06:20.598Z,9.18
2022-11-29T22:09:23.291Z,9.30
2022-11-29T22:12:34.154Z,9.20
2022-11-29T22:15:37.206Z,9.70
2022-11-29T22:18:39.897Z,8.93
2022-11-29T22:21:44.393Z,9.10
2022-11-29T22:24:47.494Z,9.05
2022-11-29T22:27:50.516Z,9.50
2022-11-29T22:30:52.948Z,9.50
2022-11-29T22:33:56.180Z,9.15
2022-11-29T22:36:58.668Z,9.75
2022-11-29T22:40:04.399Z,9.73
2022-11-29T22:43:06.907Z,9.37
2022-11-29T22:46:09.293Z,9.30
2022-11-29T22:49:13.780Z,9.73
2022-11-29T22:52:16.314Z,9.05
2022-11-29T22:55:20.445Z,9.52
2022-11-29T22:58:23.127Z,8.90
2022-11-29T23:01:28.495Z,9.23
2022-11-29T23:04:30.947Z,9.07
2022-11-29T23:07:33.475Z,9.40
2022-11-29T23:10:36.079Z,9.10
2022-11-29T23:13:40.334Z,9.13
2022-11-29T23:16:42.899Z,8.95
2022-11-29T23:19:45.385Z,8.85
2022-11-29T23:22:47.918Z,9.25
2022-11-29T23:25:50.715Z,9.10
2022-11-29T23:28:54.354Z,9.43
2022-11-29T23:31:56.786Z,9.40
2022-11-29T23:34:59.327Z,9.82
2022-11-29T23:38:01.882Z,8.52
2022-11-29T23:41:05.549Z,8.57
2022-11-29T23:44:09.416Z,8.30
2022-11-29T23:47:11.940Z,9.10
2022-11-29T23:50:15.781Z,8.75
2022-11-29T23:53:18.952Z,8.18
2022-11-29T23:56:21.983Z,9.35
2022-11-29T23:59:24.467Z,8.67
